Time;durP1;ratioP1;P1;durP2;ratioP2;P2;SDS_P1;SDS_P2;PMS_P1;PMS_P2;Temp;Humidity;BMP_temperature;BMP_pressure;BME280_temperature;BME280_humidity;BME280_pressure;Samples;Min_cycle;Max_cycle;Signal;HPM_P1;HPM_P2
2022/08/08 00:01:29;;;;;;;9.80;2.90;;;20.10;94.60;;;;;;5046400;28;20666;-52
2022/08/08 00:04:10;;;;;;;7.90;2.97;;;20.00;94.90;;;;;;5034334;28;20671;-55
2022/08/08 00:07:27;;;;;;;6.05;2.90;;;20.00;95.10;;;;;;5050662;28;20202;-54
2022/08/08 00:10:36;;;;;;;7.80;3.35;;;20.00;95.30;;;;;;5029928;28;20188;-51
2022/08/08 00:13:09;;;;;;;6.82;2.80;;;19.90;95.50;;;;;;4991272;28;20305;-50
2022/08/08 00:15:40;;;;;;;6.18;2.78;;;19.80;95.80;;;;;;5015797;28;20180;-52
2022/08/08 00:18:15;;;;;;;5.13;3.10;;;19.70;96.00;;;;;;5015461;28;20664;-53
2022/08/08 00:20:55;;;;;;;8.65;3.05;;;19.60;96.20;;;;;;5033069;28;20172;-51
2022/08/08 00:23:58;;;;;;;9.02;2.88;;;19.60;96.40;;;;;;5016199;28;20176;-53
2022/08/08 00:26:41;;;;;;;7.35;3.00;;;19.60;96.40;;;;;;4979540;28;20204;-55
2022/08/08 00:29:29;;;;;;;6.75;3.10;;;19.60;96.50;;;;;;5005186;28;20242;-53
2022/08/08 00:32:03;;;;;;;9.25;3.08;;;19.60;96.50;;;;;;4996098;28;20179;-52
2022/08/08 00:37:48;;;;;;;10.75;3.60;;;19.60;96.50;;;;;;4998437;28;20279;-54
2022/08/08 00:40:16;;;;;;;6.55;3.03;;;19.60;96.50;;;;;;5015804;28;20230;-51
2022/08/08 00:43:01;;;;;;;4.72;2.75;;;19.60;96.60;;;;;;4998271;28;20188;-50
2022/08/08 00:45:32;;;;;;;7.55;3.45;;;19.50;96.80;;;;;;5024823;28;20208;-53
2022/08/08 00:48:25;;;;;;;10.15;3.40;;;19.40;97.10;;;;;;5014318;28;20275;-49
2022/08/08 00:51:17;;;;;;;7.30;2.97;;;19.40;97.20;;;;;;5017229;28;20275;-54
2022/08/08 00:54:18;;;;;;;7.47;3.28;;;19.40;97.30;;;;;;4963835;28;20196;-52
2022/08/08 00:57:02;;;;;;;7.95;3.20;;;19.30;97.30;;;;;;5026924;28;20191;-54
2022/08/08 01:00:11;;;;;;;6.25;3.40;;;19.30;97.40;;;;;;5015502;28;20180;-53
2022/08/08 01:03:11;;;;;;;7.07;3.30;;;19.30;97.50;;;;;;4997761;28;20199;-54
2022/08/08 01:06:02;;;;;;;6.18;3.75;;;19.30;97.60;;;;;;5011022;28;20216;-50
2022/08/08 01:09:01;;;;;;;5.68;3.03;;;19.30;97.50;;;;;;4997839;28;20188;-52
2022/08/08 01:11:57;;;;;;;7.00;3.53;;;19.20;97.60;;;;;;5006782;28;20227;-53
2022/08/08 01:15:00;;;;;;;10.95;3.75;;;19.20;97.70;;;;;;5033795;28;20266;-52
2022/08/08 01:18:04;;;;;;;5.53;3.05;;;19.10;97.80;;;;;;5025633;28;20180;-52
2022/08/08 01:20:56;;;;;;;5.97;3.20;;;19.10;97.90;;;;;;5028005;28;20595;-54
2022/08/08 01:24:02;;;;;;;7.07;2.97;;;19.10;98.00;;;;;;5036330;28;20194;-52
2022/08/08 01:26:43;;;;;;;5.65;3.28;;;19.10;98.10;;;;;;5048249;28;20229;-56
2022/08/08 01:29:26;;;;;;;8.23;3.40;;;19.00;98.10;;;;;;5048669;28;20544;-53
2022/08/08 01:32:04;;;;;;;7.15;3.42;;;19.00;98.30;;;;;;5024280;28;20632;-56
2022/08/08 01:34:51;;;;;;;7.13;3.72;;;18.90;98.40;;;;;;5034683;28;20266;-55
2022/08/08 01:37:27;;;;;;;10.60;4.63;;;19.00;98.50;;;;;;5021803;28;20279;-52
2022/08/08 01:39:57;;;;;;;9.15;4.32;;;18.90;98.60;;;;;;5036532;28;20244;-48
2022/08/08 01:42:43;;;;;;;9.32;4.10;;;19.00;98.70;;;;;;5031333;28;20279;-49
2022/08/08 01:45:48;;;;;;;9.57;3.50;;;19.00;98.70;;;;;;4993860;28;20271;-48
2022/08/08 01:48:30;;;;;;;11.63;3.78;;;19.00;98.90;;;;;;4962784;28;20202;-53
2022/08/08 01:51:16;;;;;;;7.13;3.53;;;18.90;98.80;;;;;;5016517;28;20180;-52
2022/08/08 01:54:15;;;;;;;8.88;3.35;;;19.00;98.90;;;;;;5016196;28;20203;-59
2022/08/08 01:56:53;;;;;;;9.02;3.55;;;18.90;99.00;;;;;;5041944;28;20187;-53
2022/08/08 01:59:28;;;;;;;5.97;3.40;;;18.70;99.30;;;;;;5033535;28;20183;-54
2022/08/08 02:02:08;;;;;;;8.27;3.50;;;18.60;99.60;;;;;;5032065;28;20270;-52
2022/08/08 02:05:21;;;;;;;5.22;3.30;;;18.60;99.70;;;;;;5028182;28;20196;-52
2022/08/08 02:08:15;;;;;;;8.75;3.20;;;18.70;99.60;;;;;;5024332;28;20310;-52
2022/08/08 02:10:53;;;;;;;8.63;3.38;;;18.70;99.50;;;;;;5016632;28;20238;-52
2022/08/08 02:13:29;;;;;;;6.95;3.58;;;18.70;99.60;;;;;;5053590;28;20279;-54
2022/08/08 02:16:09;;;;;;;6.32;3.22;;;18.60;99.70;;;;;;5047258;28;20272;-48
2022/08/08 02:19:18;;;;;;;7.32;3.50;;;18.60;99.70;;;;;;5052083;28;20262;-47
2022/08/08 02:24:57;;;;;;;10.60;4.03;;;18.60;99.60;;;;;;5011531;28;20185;-49
2022/08/08 02:27:42;;;;;;;12.02;4.20;;;18.60;99.60;;;;;;5031837;28;20215;-54
2022/08/08 02:31:03;;;;;;;7.85;4.53;;;18.50;99.70;;;;;;5057881;28;20180;-52
2022/08/08 02:33:44;;;;;;;9.35;4.95;;;18.40;99.90;;;;;;5006612;28;20260;-54
2022/08/08 02:36:44;;;;;;;7.68;4.63;;;18.30;99.90;;;;;;5055101;28;20189;-54
2022/08/08 02:39:44;;;;;;;9.75;5.40;;;18.20;99.90;;;;;;5002566;28;20609;-53
2022/08/08 02:42:56;;;;;;;10.40;5.40;;;18.20;99.90;;;;;;5044583;28;20190;-54
2022/08/08 02:45:37;;;;;;;9.20;5.10;;;18.20;99.90;;;;;;5052860;28;20183;-57
2022/08/08 02:48:25;;;;;;;10.85;5.90;;;18.30;99.90;;;;;;5036497;28;20190;-54
2022/08/08 02:51:26;;;;;;;9.55;5.30;;;18.30;99.90;;;;;;5051837;28;20179;-57
2022/08/08 02:54:20;;;;;;;11.88;5.07;;;18.30;99.90;;;;;;5035075;28;20190;-55
2022/08/08 02:57:09;;;;;;;9.95;5.10;;;18.20;99.90;;;;;;5063123;28;20214;-53
2022/08/08 03:00:18;;;;;;;9.07;5.15;;;18.20;99.90;;;;;;5035839;28;20646;-52
2022/08/08 03:03:08;;;;;;;10.40;5.40;;;18.30;99.90;;;;;;5071872;28;20182;-54
2022/08/08 03:06:00;;;;;;;7.85;4.88;;;18.20;99.90;;;;;;5053140;28;20214;-53
2022/08/08 03:08:45;;;;;;;8.10;4.85;;;18.20;99.90;;;;;;5051424;28;20178;-54
2022/08/08 03:11:13;;;;;;;10.70;5.45;;;18.20;99.90;;;;;;5066144;28;20459;-54
2022/08/08 03:14:02;;;;;;;12.90;5.60;;;18.20;99.90;;;;;;5055671;28;20184;-54
2022/08/08 03:17:00;;;;;;;11.35;5.50;;;18.10;99.90;;;;;;5041392;28;20180;-54
2022/08/08 03:19:49;;;;;;;9.38;5.40;;;18.10;99.90;;;;;;5042322;28;20634;-54
2022/08/08 03:22:15;;;;;;;9.52;5.57;;;18.00;99.90;;;;;;5035505;28;20237;-54
2022/08/08 03:24:42;;;;;;;9.38;5.05;;;18.00;99.90;;;;;;5054257;28;20278;-51
2022/08/08 03:27:20;;;;;;;8.52;4.93;;;18.10;99.90;;;;;;5035498;28;20218;-50
2022/08/08 03:29:56;;;;;;;8.98;5.28;;;18.10;99.90;;;;;;5045044;28;20201;-52
2022/08/08 03:35:09;;;;;;;9.48;5.35;;;18.10;99.90;;;;;;5075685;28;20186;-52
2022/08/08 03:37:35;;;;;;;10.93;5.35;;;18.00;99.90;;;;;;5057159;28;20236;-54
2022/08/08 03:40:02;;;;;;;10.82;5.22;;;18.00;99.90;;;;;;5054366;28;20190;-54
2022/08/08 03:42:29;;;;;;;9.88;5.15;;;18.00;99.90;;;;;;5056780;28;20189;-53
2022/08/08 03:44:55;;;;;;;8.07;5.47;;;18.00;99.90;;;;;;5056234;28;20217;-50
2022/08/08 03:47:22;;;;;;;9.55;5.18;;;18.00;99.90;;;;;;5024704;28;20250;-52
2022/08/08 03:49:51;;;;;;;9.07;5.07;;;18.00;99.90;;;;;;5054998;28;20266;-57
2022/08/08 03:52:17;;;;;;;10.02;5.32;;;18.00;99.90;;;;;;5038975;28;20178;-52
2022/08/08 03:54:46;;;;;;;9.45;4.72;;;18.00;99.90;;;;;;5053683;28;20240;-56
2022/08/08 03:57:14;;;;;;;10.02;4.93;;;18.00;99.90;;;;;;5058577;28;20285;-53
2022/08/08 03:59:40;;;;;;;12.75;5.35;;;18.00;99.90;;;;;;5064985;28;20206;-55
2022/08/08 04:02:19;;;;;;;7.78;5.28;;;17.90;99.90;;;;;;5075714;28;20204;-54
2022/08/08 04:04:46;;;;;;;7.50;5.10;;;17.90;99.90;;;;;;5050078;28;20268;-54
2022/08/08 04:07:12;;;;;;;11.32;5.30;;;17.90;99.90;;;;;;5054803;28;20590;-52
2022/08/08 04:09:38;;;;;;;13.18;5.40;;;17.90;99.90;;;;;;5074303;28;20186;-56
2022/08/08 04:12:06;;;;;;;7.28;4.97;;;17.90;99.90;;;;;;5038481;28;20230;-51
2022/08/08 04:14:43;;;;;;;10.80;5.15;;;17.90;99.90;;;;;;5062320;28;20229;-52
2022/08/08 04:17:10;;;;;;;10.73;5.47;;;17.80;99.90;;;;;;5054583;28;20666;-52
2022/08/08 04:19:36;;;;;;;10.25;5.00;;;17.90;99.90;;;;;;5037510;28;20223;-54
2022/08/08 04:22:02;;;;;;;10.20;5.40;;;17.90;99.90;;;;;;5056766;28;20182;-51
2022/08/08 04:24:35;;;;;;;12.50;5.47;;;17.90;99.90;;;;;;5055632;28;20265;-58
2022/08/08 04:27:03;;;;;;;11.40;5.22;;;18.00;99.90;;;;;;5054842;28;20223;-52
2022/08/08 04:29:29;;;;;;;12.25;6.40;;;18.00;99.90;;;;;;5037473;28;20282;-49
2022/08/08 04:31:55;;;;;;;12.00;5.70;;;18.00;99.90;;;;;;5066596;28;20521;-51
2022/08/08 04:34:22;;;;;;;14.23;6.70;;;18.00;99.90;;;;;;5040725;28;20181;-53
2022/08/08 04:36:49;;;;;;;8.85;5.70;;;18.10;99.90;;;;;;5055336;28;20190;-52
2022/08/08 04:39:14;;;;;;;12.23;6.25;;;18.10;99.90;;;;;;5057202;28;20645;-53
2022/08/08 04:41:40;;;;;;;14.35;6.28;;;18.10;99.90;;;;;;5049259;28;20186;-54
2022/08/08 04:44:07;;;;;;;11.75;5.88;;;18.10;99.90;;;;;;5072786;28;20175;-52
2022/08/08 04:46:33;;;;;;;8.18;5.20;;;18.10;99.90;;;;;;5069593;28;20569;-52
2022/08/08 04:48:59;;;;;;;15.68;5.95;;;18.10;99.90;;;;;;5057099;28;20388;-52
2022/08/08 04:51:26;;;;;;;9.57;5.75;;;18.10;99.90;;;;;;5071185;28;20225;-53
2022/08/08 04:53:52;;;;;;;9.90;5.50;;;18.20;99.90;;;;;;5055944;28;20239;-53
2022/08/08 04:56:19;;;;;;;9.68;5.70;;;18.20;99.90;;;;;;5044523;28;20183;-55
2022/08/08 04:58:45;;;;;;;8.70;5.40;;;18.20;99.90;;;;;;5040523;28;20187;-56
2022/08/08 05:01:11;;;;;;;10.95;5.40;;;18.30;99.90;;;;;;5048810;28;20248;-52
2022/08/08 05:03:40;;;;;;;13.95;6.20;;;18.30;99.90;;;;;;5056251;28;20265;-52
2022/08/08 05:06:07;;;;;;;10.48;5.47;;;18.40;99.90;;;;;;5036015;28;20222;-49
2022/08/08 05:08:32;;;;;;;12.35;5.80;;;18.40;99.90;;;;;;5044254;28;20190;-50
2022/08/08 05:11:00;;;;;;;11.63;6.15;;;18.50;99.90;;;;;;5064462;28;20183;-53
2022/08/08 05:13:26;;;;;;;12.05;6.53;;;18.50;99.90;;;;;;5020244;28;20261;-54
2022/08/08 05:15:52;;;;;;;10.48;5.90;;;18.50;99.90;;;;;;5056535;28;20553;-56
2022/08/08 05:18:18;;;;;;;11.27;6.43;;;18.60;99.90;;;;;;5036947;28;20317;-57
2022/08/08 05:20:45;;;;;;;8.55;5.90;;;18.60;99.90;;;;;;5051288;28;20229;-57
2022/08/08 05:23:11;;;;;;;12.40;7.20;;;18.60;99.90;;;;;;5040842;28;20187;-53
2022/08/08 05:25:37;;;;;;;12.57;6.72;;;18.70;99.90;;;;;;5041817;28;20690;-54
2022/08/08 05:28:03;;;;;;;10.45;6.20;;;18.70;99.90;;;;;;5054156;28;20190;-54
2022/08/08 05:30:29;;;;;;;14.63;6.68;;;18.70;99.90;;;;;;5056891;28;20730;-53
2022/08/08 05:32:56;;;;;;;18.70;6.70;;;18.70;99.90;;;;;;5048255;28;20567;-56
2022/08/08 05:35:22;;;;;;;17.02;6.90;;;18.70;99.90;;;;;;5052748;28;20182;-56
2022/08/08 05:37:54;;;;;;;12.13;6.57;;;18.70;99.90;;;;;;5054974;28;20225;-55
2022/08/08 05:40:48;;;;;;;14.95;6.55;;;18.70;99.90;;;;;;5070160;28;20281;-52
2022/08/08 05:43:26;;;;;;;17.08;6.38;;;18.70;99.90;;;;;;5056219;28;20194;-55
2022/08/08 05:46:00;;;;;;;14.60;6.78;;;18.70;99.90;;;;;;5049370;28;20326;-58
2022/08/08 05:48:27;;;;;;;14.82;6.43;;;18.70;99.90;;;;;;5051338;28;20183;-56
2022/08/08 05:50:53;;;;;;;14.52;6.03;;;18.70;99.90;;;;;;5019300;28;20183;-57
2022/08/08 05:53:26;;;;;;;14.65;5.75;;;18.70;99.90;;;;;;5069779;28;20270;-55
2022/08/08 05:55:58;;;;;;;12.45;6.13;;;18.70;99.90;;;;;;5063971;28;20186;-55
2022/08/08 05:58:30;;;;;;;9.98;5.82;;;18.70;99.90;;;;;;5054320;28;20179;-53
2022/08/08 06:00:59;;;;;;;10.82;5.35;;;18.70;99.90;;;;;;5036442;28;20187;-53
2022/08/08 06:03:26;;;;;;;15.63;5.70;;;18.70;99.90;;;;;;5057927;28;20191;-52
2022/08/08 06:06:00;;;;;;;12.23;6.10;;;18.80;99.90;;;;;;5058800;28;20670;-56
2022/08/08 06:08:39;;;;;;;14.57;6.20;;;18.80;99.90;;;;;;5056566;28;20175;-55
2022/08/08 06:11:09;;;;;;;10.68;5.53;;;18.90;99.90;;;;;;5066380;28;20178;-53
2022/08/08 06:13:36;;;;;;;13.45;5.88;;;18.90;99.90;;;;;;5055228;28;20317;-53
2022/08/08 06:16:02;;;;;;;13.75;5.80;;;19.00;99.90;;;;;;5045508;28;20202;-51
2022/08/08 06:18:49;;;;;;;13.70;6.70;;;19.00;99.90;;;;;;5056146;28;20273;-52
2022/08/08 06:21:15;;;;;;;9.77;5.47;;;19.10;99.90;;;;;;5064150;28;20513;-52
2022/08/08 06:23:41;;;;;;;11.73;4.03;;;19.10;99.90;;;;;;5035818;28;20665;-52
2022/08/08 06:26:10;;;;;;;9.38;4.20;;;19.20;99.90;;;;;;5063107;28;20206;-50
2022/08/08 06:28:50;;;;;;;8.70;4.07;;;19.20;99.90;;;;;;5061863;28;21810;-52
2022/08/08 06:31:20;;;;;;;10.30;3.72;;;19.20;99.90;;;;;;5042845;28;20604;-52
2022/08/08 06:34:03;;;;;;;9.38;4.18;;;19.20;99.90;;;;;;5050711;28;20618;-58
2022/08/08 06:36:42;;;;;;;11.75;3.45;;;19.30;99.90;;;;;;5038747;28;20186;-56
2022/08/08 06:39:13;;;;;;;8.32;3.17;;;19.30;99.90;;;;;;5050720;28;20668;-52
2022/08/08 06:42:05;;;;;;;9.13;3.72;;;19.40;99.90;;;;;;5052840;28;20181;-53
2022/08/08 06:44:47;;;;;;;11.30;3.58;;;19.40;99.90;;;;;;5055625;28;20202;-55
2022/08/08 06:47:14;;;;;;;12.98;5.07;;;19.50;99.90;;;;;;5059412;28;20210;-56
2022/08/08 06:49:41;;;;;;;8.27;3.33;;;19.50;99.90;;;;;;5053674;28;20187;-53
2022/08/08 06:52:07;;;;;;;14.32;3.58;;;19.50;99.90;;;;;;5050184;28;20237;-54
2022/08/08 06:54:36;;;;;;;10.65;3.03;;;19.60;99.90;;;;;;5051147;28;20183;-60
2022/08/08 06:57:02;;;;;;;9.05;3.38;;;19.60;99.90;;;;;;5050823;28;20179;-54
2022/08/08 06:59:28;;;;;;;7.95;3.20;;;19.70;99.90;;;;;;5035316;28;20650;-58
2022/08/08 07:02:03;;;;;;;6.32;3.30;;;19.70;99.90;;;;;;5036103;28;20270;-58
2022/08/08 07:05:01;;;;;;;8.75;3.05;;;19.80;99.90;;;;;;5058031;28;20214;-51
2022/08/08 07:07:51;;;;;;;9.60;3.20;;;19.90;99.90;;;;;;5052654;28;20276;-58
2022/08/08 07:10:20;;;;;;;8.35;3.30;;;20.00;99.90;;;;;;5039230;28;20268;-55
2022/08/08 07:13:02;;;;;;;11.15;3.30;;;20.10;99.90;;;;;;5032760;28;20290;-55
2022/08/08 07:15:52;;;;;;;6.32;2.90;;;20.20;99.90;;;;;;5027707;28;20184;-54
2022/08/08 07:18:41;;;;;;;7.78;3.10;;;20.30;99.90;;;;;;5011628;28;20696;-54
2022/08/08 07:21:15;;;;;;;10.00;2.90;;;20.40;99.90;;;;;;4991074;28;20197;-49
2022/08/08 07:23:47;;;;;;;7.07;3.00;;;20.50;99.90;;;;;;4979789;28;20207;-50
2022/08/08 07:26:16;;;;;;;9.02;2.83;;;20.60;99.90;;;;;;5012908;28;20211;-50
2022/08/08 07:28:42;;;;;;;6.78;2.83;;;20.70;99.90;;;;;;5006295;28;20243;-58
2022/08/08 07:31:09;;;;;;;7.78;2.90;;;20.80;99.90;;;;;;5021409;28;20706;-56
2022/08/08 07:33:38;;;;;;;10.45;2.72;;;20.90;99.90;;;;;;5011166;28;20191;-52
2022/08/08 07:36:07;;;;;;;7.80;2.30;;;21.00;99.90;;;;;;5002916;28;20246;-51
2022/08/08 07:38:34;;;;;;;7.82;2.80;;;21.10;99.90;;;;;;5001240;28;20187;-49
2022/08/08 07:41:06;;;;;;;8.43;2.38;;;21.20;99.90;;;;;;5002755;28;20641;-55
2022/08/08 07:43:35;;;;;;;6.55;2.55;;;21.30;99.90;;;;;;4995340;28;20181;-49
2022/08/08 07:46:02;;;;;;;9.02;2.47;;;21.40;99.90;;;;;;4994717;28;20291;-55
2022/08/08 07:48:29;;;;;;;5.55;2.08;;;21.40;99.90;;;;;;4994725;28;20637;-52
2022/08/08 07:50:59;;;;;;;5.78;2.40;;;21.50;99.90;;;;;;4995634;28;20319;-52
2022/08/08 07:53:51;;;;;;;7.10;2.20;;;21.60;99.60;;;;;;4995225;28;20189;-56
2022/08/08 07:56:17;;;;;;;7.03;2.47;;;21.60;99.20;;;;;;4995976;28;20552;-53
2022/08/08 07:58:46;;;;;;;5.75;2.08;;;21.70;98.90;;;;;;5011181;28;20219;-53
2022/08/08 08:01:19;;;;;;;7.20;2.33;;;21.70;98.80;;;;;;4995416;28;20185;-54
2022/08/08 08:03:54;;;;;;;6.80;2.00;;;21.70;98.50;;;;;;4999297;28;20192;-54
2022/08/08 08:06:26;;;;;;;3.60;1.95;;;21.70;98.40;;;;;;4998257;28;20218;-51
2022/08/08 08:09:18;;;;;;;3.85;1.83;;;21.70;98.20;;;;;;5021808;28;20188;-50
2022/08/08 08:11:49;;;;;;;6.47;2.53;;;21.80;98.00;;;;;;5010746;28;20188;-53
2022/08/08 08:14:31;;;;;;;7.20;2.40;;;21.80;97.90;;;;;;4998806;28;20202;-51
2022/08/08 08:16:58;;;;;;;6.13;2.28;;;21.90;97.90;;;;;;5034682;28;20182;-50
2022/08/08 08:19:31;;;;;;;5.85;2.47;;;21.90;97.70;;;;;;5034517;28;20187;-51
2022/08/08 08:21:57;;;;;;;5.82;2.40;;;22.00;97.50;;;;;;5018638;28;20180;-53
2022/08/08 08:24:49;;;;;;;7.28;1.85;;;22.20;97.40;;;;;;5048876;28;20203;-56
2022/08/08 08:27:20;;;;;;;4.93;1.98;;;22.30;97.00;;;;;;5029702;28;20219;-57
2022/08/08 08:29:48;;;;;;;4.85;1.70;;;22.30;96.70;;;;;;5041465;28;20587;-59
2022/08/08 08:32:15;;;;;;;4.82;2.00;;;22.40;96.30;;;;;;5015927;28;20180;-60
2022/08/08 08:34:42;;;;;;;8.00;2.28;;;22.50;96.00;;;;;;5023010;28;20640;-54
2022/08/08 08:37:08;;;;;;;7.63;2.22;;;22.70;95.70;;;;;;5036243;28;20219;-55
2022/08/08 08:39:37;;;;;;;5.15;2.50;;;22.70;95.40;;;;;;5020875;28;20238;-54
2022/08/08 08:42:03;;;;;;;8.65;2.75;;;22.80;95.00;;;;;;5027357;28;20273;-54
2022/08/08 08:44:29;;;;;;;5.03;1.60;;;22.90;95.00;;;;;;5051999;28;20176;-54
2022/08/08 08:46:57;;;;;;;7.20;2.30;;;22.90;94.50;;;;;;5035779;28;20220;-59
2022/08/08 08:49:23;;;;;;;5.60;1.65;;;23.00;93.60;;;;;;5017871;28;20207;-53
2022/08/08 08:51:51;;;;;;;4.82;1.80;;;23.00;93.20;;;;;;5052476;28;20651;-60
2022/08/08 08:54:20;;;;;;;4.13;1.77;;;23.00;93.00;;;;;;5021079;28;21017;-57
2022/08/08 08:56:47;;;;;;;3.97;1.70;;;23.00;92.70;;;;;;5019388;28;20188;-57
2022/08/08 08:59:16;;;;;;;7.13;1.73;;;23.00;92.40;;;;;;5017633;28;20184;-53
2022/08/08 09:01:54;;;;;;;4.65;1.85;;;23.00;92.30;;;;;;5021179;28;20194;-53
2022/08/08 09:04:26;;;;;;;5.63;2.17;;;23.00;92.20;;;;;;5026201;28;20218;-48
2022/08/08 09:06:56;;;;;;;9.82;2.42;;;22.90;92.10;;;;;;5026999;28;20237;-59
2022/08/08 09:09:25;;;;;;;7.28;2.40;;;22.80;92.30;;;;;;5035550;28;20202;-57
2022/08/08 09:11:53;;;;;;;4.22;2.10;;;22.70;92.60;;;;;;5024017;28;20560;-55
2022/08/08 09:14:23;;;;;;;7.18;2.15;;;22.60;92.70;;;;;;5025172;28;20582;-57
2022/08/08 09:16:51;;;;;;;6.53;2.22;;;22.60;92.90;;;;;;5035234;28;20183;-57
2022/08/08 09:19:17;;;;;;;6.40;2.45;;;22.60;93.10;;;;;;5037188;28;20286;-56
2022/08/08 09:21:48;;;;;;;9.20;2.40;;;22.70;93.20;;;;;;5019325;28;20176;-58
2022/08/08 09:24:15;;;;;;;7.43;2.15;;;22.80;93.10;;;;;;5042749;28;20205;-56
2022/08/08 09:27:05;;;;;;;3.95;1.83;;;22.90;92.90;;;;;;5031148;28;20215;-56
2022/08/08 09:29:48;;;;;;;4.50;2.10;;;22.90;92.60;;;;;;5036281;28;20237;-55
2022/08/08 09:32:17;;;;;;;6.47;2.30;;;23.00;92.40;;;;;;5019785;28;20192;-56
2022/08/08 09:34:50;;;;;;;7.00;2.25;;;23.10;92.20;;;;;;5031216;28;20178;-53
2022/08/08 09:37:18;;;;;;;4.07;1.77;;;23.30;92.00;;;;;;5036592;28;20266;-53
2022/08/08 09:39:59;;;;;;;5.35;2.00;;;23.40;91.50;;;;;;5050923;28;20186;-54
2022/08/08 09:42:38;;;;;;;3.72;1.75;;;23.50;91.20;;;;;;5000431;28;20274;-57
2022/08/08 09:45:20;;;;;;;4.47;1.90;;;23.60;90.40;;;;;;5034134;28;20175;-55
2022/08/08 09:47:47;;;;;;;4.03;1.70;;;23.70;90.00;;;;;;5043176;28;20672;-61
2022/08/08 09:50:19;;;;;;;4.18;2.10;;;23.80;88.90;;;;;;5036960;28;20176;-61
2022/08/08 09:52:53;;;;;;;3.33;2.03;;;23.90;88.40;;;;;;5034276;28;20179;-62
2022/08/08 09:55:20;;;;;;;4.80;1.48;;;24.00;87.60;;;;;;5035464;28;20190;-59
2022/08/08 09:57:55;;;;;;;7.38;2.05;;;24.10;86.40;;;;;;5052886;28;20183;-58
2022/08/08 10:00:23;;;;;;;26.00;4.70;;;24.20;85.00;;;;;;5048355;28;20236;-60
2022/08/08 10:02:51;;;;;;;10.05;2.30;;;24.10;84.80;;;;;;5032546;28;20195;-60
2022/08/08 10:05:20;;;;;;;5.53;2.40;;;24.10;84.80;;;;;;5034405;28;20222;-59
2022/08/08 10:07:51;;;;;;;5.97;2.40;;;24.10;84.60;;;;;;5038588;28;20284;-59
2022/08/08 10:10:32;;;;;;;8.18;2.72;;;23.90;84.60;;;;;;5036959;28;20175;-55
2022/08/08 10:13:00;;;;;;;7.50;3.30;;;23.70;84.70;;;;;;5035673;28;20243;-60
2022/08/08 10:15:35;;;;;;;3.75;2.10;;;23.60;85.30;;;;;;5019363;28;20270;-60
2022/08/08 10:18:01;;;;;;;4.03;2.20;;;23.50;85.60;;;;;;5043627;28;20934;-59
2022/08/08 10:20:28;;;;;;;8.23;2.80;;;23.50;85.70;;;;;;5034471;28;20715;-59
2022/08/08 10:22:59;;;;;;;12.82;2.78;;;23.50;86.00;;;;;;5046142;28;20188;-58
2022/08/08 10:25:25;;;;;;;6.72;2.42;;;23.50;86.20;;;;;;5021653;28;20203;-58
2022/08/08 10:28:05;;;;;;;6.63;2.50;;;23.40;86.40;;;;;;5053050;28;20176;-59
2022/08/08 10:30:31;;;;;;;5.03;2.30;;;23.40;86.30;;;;;;5018882;28;20325;-59
2022/08/08 10:32:59;;;;;;;9.20;2.40;;;23.40;86.40;;;;;;5053288;28;20183;-59
2022/08/08 10:35:30;;;;;;;4.32;2.00;;;23.30;86.00;;;;;;5050954;28;20180;-58
2022/08/08 10:38:02;;;;;;;5.85;2.22;;;23.30;85.90;;;;;;5026000;28;20179;-54
2022/08/08 10:40:30;;;;;;;8.15;2.13;;;23.40;85.20;;;;;;5038715;28;20317;-55
2022/08/08 10:43:04;;;;;;;7.05;1.83;;;23.50;84.60;;;;;;5032333;28;20549;-58
2022/08/08 10:45:40;;;;;;;4.60;1.90;;;23.50;83.90;;;;;;5046514;28;20183;-58
2022/08/08 10:48:09;;;;;;;7.20;2.40;;;23.60;83.00;;;;;;5053103;28;20183;-58
2022/08/08 10:50:37;;;;;;;6.15;2.33;;;23.60;82.50;;;;;;5039320;28;20180;-59
2022/08/08 10:53:08;;;;;;;4.78;2.03;;;23.60;82.50;;;;;;5045073;28;20188;-57
2022/08/08 10:55:39;;;;;;;4.57;2.08;;;23.60;81.90;;;;;;5051023;28;20179;-61
2022/08/08 10:58:08;;;;;;;7.07;1.73;;;23.60;81.20;;;;;;5052802;28;20701;-58
2022/08/08 11:00:34;;;;;;;5.40;2.05;;;23.60;81.00;;;;;;5050918;28;20187;-52
2022/08/08 11:03:39;;;;;;;2.90;1.77;;;23.60;81.40;;;;;;5039837;28;20222;-53
2022/08/08 11:06:06;;;;;;;4.00;1.80;;;23.60;81.50;;;;;;5036447;28;20218;-56
2022/08/08 11:08:32;;;;;;;3.83;1.70;;;23.70;81.30;;;;;;5026779;28;20524;-54
2022/08/08 11:11:05;;;;;;;8.88;1.80;;;23.90;80.80;;;;;;5023582;28;20191;-56
2022/08/08 11:13:42;;;;;;;4.18;1.55;;;24.00;79.60;;;;;;5038907;28;20227;-53
2022/08/08 11:16:16;;;;;;;4.35;1.50;;;24.20;78.60;;;;;;5044008;28;20274;-53
2022/08/08 11:18:46;;;;;;;2.55;1.30;;;24.40;77.80;;;;;;5043745;28;20198;-51
2022/08/08 11:21:13;;;;;;;3.92;1.33;;;24.50;76.50;;;;;;5033031;28;20192;-57
2022/08/08 11:23:41;;;;;;;5.93;1.38;;;24.60;76.40;;;;;;5031613;28;20187;-52
2022/08/08 11:26:09;;;;;;;3.75;1.40;;;24.70;75.80;;;;;;5037116;28;20226;-57
2022/08/08 11:28:36;;;;;;;3.20;1.50;;;24.70;75.80;;;;;;5051224;28;20183;-51
2022/08/08 11:31:03;;;;;;;3.08;1.65;;;24.70;76.10;;;;;;5031788;28;20287;-50
2022/08/08 11:33:34;;;;;;;4.00;1.75;;;24.70;75.70;;;;;;5052587;28;20214;-50
2022/08/08 11:36:00;;;;;;;3.85;1.48;;;24.50;76.10;;;;;;5039941;28;20182;-52
2022/08/08 11:38:26;;;;;;;3.20;1.50;;;24.40;77.10;;;;;;5022372;28;20602;-50
2022/08/08 11:40:54;;;;;;;8.68;1.75;;;24.30;77.80;;;;;;5047480;28;20198;-54
2022/08/08 11:43:23;;;;;;;5.13;2.00;;;24.20;78.20;;;;;;5032570;28;20268;-53
2022/08/08 11:45:51;;;;;;;5.10;2.20;;;24.10;78.90;;;;;;5037571;28;20269;-53
2022/08/08 11:48:18;;;;;;;9.90;2.58;;;24.00;79.60;;;;;;5023860;28;20573;-51
2022/08/08 11:50:45;;;;;;;8.27;2.75;;;23.90;80.40;;;;;;5036376;28;20597;-52
2022/08/08 11:53:11;;;;;;;9.25;2.50;;;23.90;81.10;;;;;;5036488;28;20191;-51
2022/08/08 11:55:49;;;;;;;5.53;2.40;;;23.90;81.90;;;;;;5035680;28;20569;-53
2022/08/08 11:58:16;;;;;;;6.80;2.30;;;23.80;82.50;;;;;;5035636;28;20175;-54
2022/08/08 12:00:52;;;;;;;6.88;2.47;;;23.80;83.10;;;;;;5041368;28;20274;-48
2022/08/08 12:03:18;;;;;;;9.70;2.50;;;23.80;83.60;;;;;;5036387;28;20263;-53
2022/08/08 12:05:45;;;;;;;6.32;2.53;;;23.80;84.50;;;;;;5001449;28;20719;-52
2022/08/08 12:08:12;;;;;;;7.10;2.38;;;23.80;85.10;;;;;;5043293;28;20184;-53
2022/08/08 12:10:51;;;;;;;4.55;1.75;;;23.80;85.30;;;;;;5036389;28;20172;-55
2022/08/08 12:13:22;;;;;;;6.88;2.55;;;23.90;85.50;;;;;;5039341;28;20306;-54
2022/08/08 12:15:49;;;;;;;5.55;1.90;;;24.00;85.60;;;;;;5034918;28;20184;-55
2022/08/08 12:18:18;;;;;;;4.25;2.00;;;24.10;84.90;;;;;;5035928;28;20694;-53
2022/08/08 12:20:44;;;;;;;4.55;1.80;;;24.20;84.60;;;;;;5044389;28;20191;-55
2022/08/08 12:23:11;;;;;;;6.20;2.38;;;24.30;84.50;;;;;;5038004;28;20575;-54
2022/08/08 12:25:37;;;;;;;8.45;2.35;;;24.40;84.20;;;;;;5053373;28;20271;-55
2022/08/08 12:28:14;;;;;;;5.03;2.05;;;24.50;83.80;;;;;;5047647;28;20270;-54
2022/08/08 12:30:41;;;;;;;5.72;1.90;;;24.70;83.10;;;;;;5034678;28;20179;-53
2022/08/08 12:33:24;;;;;;;5.20;2.30;;;24.80;82.90;;;;;;5047203;28;20213;-55
2022/08/08 12:35:51;;;;;;;8.02;2.15;;;24.80;82.60;;;;;;5031482;28;20187;-54
2022/08/08 12:38:17;;;;;;;5.25;2.00;;;25.00;81.40;;;;;;5035416;28;20186;-54
2022/08/08 12:40:48;;;;;;;4.00;2.00;;;25.20;80.60;;;;;;5041807;28;20642;-57
2022/08/08 12:43:15;;;;;;;4.32;1.90;;;25.30;80.00;;;;;;5027306;28;20211;-52
2022/08/08 12:45:43;;;;;;;7.70;1.98;;;25.40;78.80;;;;;;5045193;28;20179;-52
2022/08/08 12:48:23;;;;;;;6.20;1.92;;;25.50;78.40;;;;;;5055028;28;20184;-53
2022/08/08 12:50:55;;;;;;;3.97;1.50;;;25.60;78.00;;;;;;5045324;28;20184;-53
2022/08/08 12:53:32;;;;;;;6.20;1.70;;;25.80;77.20;;;;;;5043680;28;20209;-56
2022/08/08 12:56:05;;;;;;;4.88;1.80;;;26.00;75.20;;;;;;5053164;28;20179;-56
2022/08/08 12:58:51;;;;;;;4.40;2.20;;;26.20;74.70;;;;;;5054840;28;20653;-53
2022/08/08 13:01:18;;;;;;;4.35;1.80;;;26.20;72.80;;;;;;5045308;28;20198;-56
2022/08/08 13:03:49;;;;;;;2.72;1.38;;;26.20;72.30;;;;;;5048583;28;20179;-53
2022/08/08 13:06:19;;;;;;;6.05;1.20;;;26.10;71.20;;;;;;5051828;28;20559;-51
2022/08/08 13:08:52;;;;;;;2.95;1.10;;;26.00;70.30;;;;;;5037230;28;20194;-54
2022/08/08 13:11:22;;;;;;;2.80;1.08;;;26.00;69.60;;;;;;5050204;28;20636;-58
2022/08/08 13:14:03;;;;;;;4.65;1.20;;;26.00;69.00;;;;;;5054879;28;20675;-60
2022/08/08 13:16:32;;;;;;;2.78;1.40;;;26.20;68.90;;;;;;5041644;28;20186;-61
2022/08/08 13:19:01;;;;;;;5.53;1.50;;;26.40;68.00;;;;;;5033788;28;20180;-59
2022/08/08 13:21:26;;;;;;;3.67;1.50;;;26.60;67.40;;;;;;5029697;28;20186;-58
2022/08/08 13:23:52;;;;;;;2.65;1.10;;;26.90;66.70;;;;;;5042694;28;20175;-55
2022/08/08 13:26:18;;;;;;;2.33;1.25;;;27.10;65.20;;;;;;5036704;28;20207;-54
2022/08/08 13:28:44;;;;;;;5.53;1.13;;;27.20;64.20;;;;;;5034055;28;20199;-57
2022/08/08 13:31:12;;;;;;;4.80;1.85;;;27.30;63.40;;;;;;5056899;28;20229;-54
2022/08/08 13:33:39;;;;;;;6.28;1.65;;;27.30;63.60;;;;;;5035828;28;20177;-54